Time;durP1;ratioP1;P1;durP2;ratioP2;P2;SDS_P1;SDS_P2;PMS_P1;PMS_P2;Temp;Humidity;BMP_temperature;BMP_pressure;BME280_temperature;BME280_humidity;BME280_pressure;Samples;Min_cycle;Max_cycle;Signal;HPM_P1;HPM_P2
2021/01/19 00:01:49;;;;;;;6.57;1.50;;;3.90;99.90;;;;;;5017746;28;20206;-60
2021/01/19 00:04:14;;;;;;;6.63;2.83;;;3.90;99.90;;;;;;5015714;28;20233;-60
2021/01/19 00:06:40;;;;;;;4.63;1.63;;;3.90;99.90;;;;;;5016618;28;20191;-60
2021/01/19 00:09:05;;;;;;;1.70;0.20;;;3.90;99.90;;;;;;5016307;28;20214;-60
2021/01/19 00:11:31;;;;;;;1.80;0.20;;;3.90;99.90;;;;;;5015772;28;20217;-60
2021/01/19 00:13:56;;;;;;;1.70;0.20;;;3.80;99.90;;;;;;5016144;28;20650;-60
2021/01/19 00:16:22;;;;;;;2.63;0.30;;;3.80;99.90;;;;;;5016102;28;20305;-60
2021/01/19 00:18:47;;;;;;;2.30;0.80;;;3.80;99.90;;;;;;5017814;28;20720;-60
2021/01/19 00:21:13;;;;;;;1.70;0.20;;;3.70;99.90;;;;;;5017131;28;20212;-60
2021/01/19 00:23:38;;;;;;;1.73;0.27;;;3.70;99.90;;;;;;5015092;28;20178;-60
2021/01/19 00:26:04;;;;;;;3.30;1.47;;;3.70;99.90;;;;;;5015169;28;20183;-60
2021/01/19 00:28:29;;;;;;;2.20;0.90;;;3.70;99.90;;;;;;5014289;28;20225;-60
2021/01/19 00:30:55;;;;;;;3.87;1.00;;;3.70;99.90;;;;;;5015537;28;20191;-60
2021/01/19 00:33:20;;;;;;;1.70;0.20;;;3.70;99.90;;;;;;5021446;28;20193;-60
2021/01/19 00:35:46;;;;;;;3.33;1.67;;;3.70;99.90;;;;;;5016991;28;20253;-60
2021/01/19 00:38:11;;;;;;;7.63;1.80;;;3.60;99.90;;;;;;5010528;28;20411;-60
2021/01/19 00:40:37;;;;;;;2.50;1.07;;;3.60;99.90;;;;;;5015596;28;20267;-60
2021/01/19 00:43:02;;;;;;;3.30;1.77;;;3.50;99.90;;;;;;5016663;28;20769;-60
2021/01/19 00:45:28;;;;;;;2.10;0.50;;;3.40;99.90;;;;;;5018390;28;20237;-61
2021/01/19 00:47:54;;;;;;;1.70;0.20;;;3.40;99.90;;;;;;5022416;28;20205;-60
2021/01/19 00:50:19;;;;;;;4.67;1.57;;;3.40;99.90;;;;;;5018554;28;20976;-60
2021/01/19 00:52:45;;;;;;;4.37;2.70;;;3.40;99.90;;;;;;5019877;28;20612;-60
2021/01/19 00:55:14;;;;;;;1.80;0.20;;;3.40;99.90;;;;;;5020828;28;20281;-61
2021/01/19 00:57:39;;;;;;;1.70;0.28;;;3.40;99.90;;;;;;5017597;28;20206;-61
2021/01/19 01:00:09;;;;;;;3.50;0.87;;;3.50;99.90;;;;;;5018727;28;20189;-60
2021/01/19 01:02:36;;;;;;;1.80;0.30;;;3.50;99.90;;;;;;5015937;28;20182;-63
2021/01/19 01:05:07;;;;;;;1.70;0.20;;;3.50;99.90;;;;;;5015361;28;20719;-60
2021/01/19 01:07:36;;;;;;;3.00;1.33;;;3.50;99.90;;;;;;5014325;28;20215;-60
2021/01/19 01:10:06;;;;;;;1.70;0.20;;;3.60;99.90;;;;;;5015643;28;20222;-60
2021/01/19 01:12:31;;;;;;;2.30;0.95;;;3.60;99.90;;;;;;5015304;28;20507;-60
2021/01/19 01:14:57;;;;;;;1.70;0.23;;;3.60;99.90;;;;;;5017381;28;20213;-60
2021/01/19 01:17:23;;;;;;;1.80;0.20;;;3.60;99.90;;;;;;5016682;28;20210;-61
2021/01/19 01:19:48;;;;;;;4.33;1.33;;;3.60;99.90;;;;;;5014813;28;20452;-60
2021/01/19 01:22:14;;;;;;;2.60;1.10;;;3.60;99.90;;;;;;5016046;28;20214;-60
2021/01/19 01:24:39;;;;;;;1.90;0.53;;;3.50;99.90;;;;;;5016281;28;20258;-60
2021/01/19 01:27:05;;;;;;;4.60;1.47;;;3.50;99.90;;;;;;5015288;28;20205;-60
2021/01/19 01:29:31;;;;;;;3.20;1.67;;;3.50;99.90;;;;;;5018933;28;20174;-61
2021/01/19 01:31:57;;;;;;;1.70;0.20;;;3.50;99.90;;;;;;5015131;28;20195;-60
2021/01/19 01:34:22;;;;;;;14.43;2.27;;;3.50;99.90;;;;;;5022028;28;20209;-61
2021/01/19 01:36:48;;;;;;;2.30;0.80;;;3.50;99.90;;;;;;5016525;28;20556;-60
2021/01/19 01:39:13;;;;;;;3.13;1.37;;;3.50;99.90;;;;;;5015387;28;20745;-60
2021/01/19 01:41:39;;;;;;;1.70;0.20;;;3.40;99.90;;;;;;5014947;28;20201;-60
2021/01/19 01:44:04;;;;;;;1.70;0.20;;;3.40;99.90;;;;;;5015541;28;20210;-60
2021/01/19 01:46:33;;;;;;;1.70;0.20;;;3.40;99.90;;;;;;5013758;28;20218;-60
2021/01/19 01:49:00;;;;;;;1.73;0.20;;;3.40;99.90;;;;;;5014503;28;20290;-60
2021/01/19 01:51:27;;;;;;;1.70;0.20;;;3.40;99.90;;;;;;5014212;28;20186;-60
2021/01/19 01:53:52;;;;;;;9.48;3.13;;;3.40;99.90;;;;;;5014156;28;20194;-60
2021/01/19 01:56:19;;;;;;;2.30;0.80;;;3.50;99.90;;;;;;5014381;28;20225;-60
2021/01/19 01:58:45;;;;;;;2.33;0.77;;;3.40;99.90;;;;;;5014797;28;20226;-60
2021/01/19 02:01:12;;;;;;;1.70;0.20;;;3.50;99.90;;;;;;5014532;28;20190;-60
2021/01/19 02:03:38;;;;;;;1.70;0.20;;;3.50;99.90;;;;;;5012562;28;20179;-60
2021/01/19 02:06:04;;;;;;;1.70;0.20;;;3.50;99.90;;;;;;5013475;28;20550;-60
2021/01/19 02:08:56;;;;;;;2.22;0.50;;;3.50;99.90;;;;;;5012905;28;20264;-60
2021/01/19 02:11:41;;;;;;;7.60;2.85;;;3.50;99.90;;;;;;5007147;28;20190;-60
2021/01/19 02:14:55;;;;;;;2.00;0.85;;;3.40;99.90;;;;;;5014264;28;20260;-60
2021/01/19 02:17:53;;;;;;;2.50;1.08;;;3.40;99.90;;;;;;4952516;29;20208;-60
2021/01/19 02:20:28;;;;;;;4.55;2.95;;;3.50;99.90;;;;;;4952977;29;20228;-60
2021/01/19 02:23:25;;;;;;;2.45;0.80;;;3.50;99.90;;;;;;4999632;28;20198;-60
2021/01/19 02:26:15;;;;;;;2.55;0.80;;;3.50;99.90;;;;;;5029467;28;20242;-60
2021/01/19 02:28:50;;;;;;;2.10;0.47;;;3.50;99.90;;;;;;5031165;28;20254;-61
2021/01/19 02:31:25;;;;;;;1.70;0.20;;;3.50;99.90;;;;;;5025014;28;20177;-61
2021/01/19 02:34:17;;;;;;;1.70;0.20;;;3.60;99.90;;;;;;5037807;28;20190;-61
2021/01/19 02:36:58;;;;;;;4.03;1.67;;;3.70;99.90;;;;;;5021165;28;20702;-61
2021/01/19 02:40:10;;;;;;;1.80;0.40;;;3.70;99.90;;;;;;5022429;28;20222;-60
2021/01/19 02:43:06;;;;;;;3.58;3.28;;;3.70;99.90;;;;;;5013713;28;20248;-60
2021/01/19 02:45:31;;;;;;;2.03;1.02;;;3.70;99.90;;;;;;5015975;28;20194;-60
2021/01/19 02:47:57;;;;;;;10.20;2.50;;;3.70;99.90;;;;;;5017359;28;20566;-60
2021/01/19 02:50:22;;;;;;;1.80;0.40;;;3.80;99.90;;;;;;5014502;28;20205;-60
2021/01/19 02:52:49;;;;;;;3.20;2.00;;;3.80;99.90;;;;;;5016943;28;20206;-60
2021/01/19 02:55:15;;;;;;;2.38;0.93;;;3.80;99.90;;;;;;5017386;28;20206;-60
2021/01/19 02:58:08;;;;;;;2.37;0.63;;;3.80;99.90;;;;;;5016512;28;20667;-61
2021/01/19 03:00:58;;;;;;;2.67;1.88;;;3.80;99.90;;;;;;5011512;28;20187;-60
2021/01/19 03:03:24;;;;;;;1.80;0.32;;;3.80;99.90;;;;;;5014284;28;20182;-60
2021/01/19 03:05:50;;;;;;;2.63;0.37;;;3.80;99.90;;;;;;5013366;28;20190;-60
2021/01/19 03:08:18;;;;;;;2.13;0.63;;;3.90;99.90;;;;;;5013495;28;20206;-61
2021/01/19 03:10:44;;;;;;;1.70;0.20;;;3.90;99.90;;;;;;5014270;28;20544;-60
2021/01/19 03:13:13;;;;;;;1.70;0.20;;;3.90;99.90;;;;;;5014442;28;20218;-60
2021/01/19 03:15:40;;;;;;;2.80;0.73;;;3.90;99.90;;;;;;5015055;28;20202;-60
2021/01/19 03:18:09;;;;;;;1.70;0.20;;;3.90;99.90;;;;;;5015586;28;20225;-61
2021/01/19 03:20:35;;;;;;;3.85;1.60;;;3.90;99.90;;;;;;5013413;28;20182;-60
2021/01/19 03:23:01;;;;;;;1.80;0.33;;;3.90;99.90;;;;;;5014430;28;20221;-61
2021/01/19 03:25:27;;;;;;;1.70;0.20;;;3.90;99.90;;;;;;5014128;28;20532;-60
2021/01/19 03:27:52;;;;;;;2.17;0.47;;;3.90;99.90;;;;;;5012006;28;20439;-60
2021/01/19 03:30:18;;;;;;;2.90;0.93;;;3.90;99.90;;;;;;5014066;28;20587;-60
2021/01/19 03:32:44;;;;;;;4.80;2.40;;;3.80;99.90;;;;;;5014571;28;20218;-60
2021/01/19 03:35:10;;;;;;;1.70;0.20;;;3.80;99.90;;;;;;5013064;28;20550;-60
2021/01/19 03:37:35;;;;;;;3.45;1.30;;;3.80;99.90;;;;;;5013617;28;20290;-60
2021/01/19 03:40:05;;;;;;;4.73;2.30;;;3.80;99.90;;;;;;5014059;28;20214;-60
2021/01/19 03:42:31;;;;;;;6.32;1.80;;;3.80;99.90;;;;;;5013923;28;20175;-60
2021/01/19 03:44:57;;;;;;;1.73;0.30;;;3.70;99.90;;;;;;5014216;28;20268;-61
2021/01/19 03:47:22;;;;;;;1.70;0.20;;;3.80;99.90;;;;;;5014253;28;20485;-60
2021/01/19 03:49:48;;;;;;;3.20;0.67;;;3.80;99.90;;;;;;5017665;28;20702;-60
2021/01/19 03:52:13;;;;;;;1.80;0.30;;;3.80;99.90;;;;;;5017612;28;20669;-60
2021/01/19 03:54:39;;;;;;;2.10;0.67;;;3.80;99.90;;;;;;5016957;28;20179;-61
2021/01/19 03:57:05;;;;;;;7.77;2.40;;;3.80;99.90;;;;;;5016075;28;20217;-60
2021/01/19 03:59:30;;;;;;;1.70;0.20;;;3.80;99.90;;;;;;5017829;28;20258;-60
2021/01/19 04:01:56;;;;;;;6.90;2.23;;;3.70;99.90;;;;;;5015624;28;20940;-60
2021/01/19 04:04:21;;;;;;;4.57;2.20;;;3.70;99.90;;;;;;5016656;28;20194;-60
2021/01/19 04:06:47;;;;;;;3.60;1.67;;;3.70;99.90;;;;;;5017598;28;20198;-60
2021/01/19 04:09:12;;;;;;;2.80;1.10;;;3.60;99.90;;;;;;5015869;28;20295;-60
2021/01/19 04:11:38;;;;;;;2.10;0.50;;;3.60;99.90;;;;;;5016707;28;20221;-61
2021/01/19 04:14:03;;;;;;;3.13;1.03;;;3.60;99.90;;;;;;5017138;28;20604;-60
2021/01/19 04:16:29;;;;;;;2.30;0.70;;;3.70;99.90;;;;;;5017510;28;20914;-60
2021/01/19 04:18:54;;;;;;;1.90;0.40;;;3.60;99.90;;;;;;5014772;28;20205;-60
2021/01/19 04:21:20;;;;;;;2.27;0.70;;;3.70;99.90;;;;;;5017039;28;20183;-60
2021/01/19 04:23:45;;;;;;;3.90;1.43;;;3.70;99.90;;;;;;5016562;28;20185;-60
2021/01/19 04:26:11;;;;;;;4.30;2.27;;;3.70;99.90;;;;;;5018041;28;20178;-61
2021/01/19 04:28:36;;;;;;;2.33;0.70;;;3.60;99.90;;;;;;5015616;28;20206;-60
2021/01/19 04:31:03;;;;;;;1.70;0.20;;;3.70;99.90;;;;;;5016405;28;20187;-60
2021/01/19 04:33:28;;;;;;;1.70;0.20;;;3.70;99.90;;;;;;5018029;28;20187;-60
2021/01/19 04:35:54;;;;;;;1.70;0.20;;;3.70;99.90;;;;;;5015961;28;20206;-60
2021/01/19 04:38:19;;;;;;;7.80;2.17;;;3.70;99.90;;;;;;5016371;28;20199;-61
2021/01/19 04:40:45;;;;;;;1.90;0.73;;;3.70;99.90;;;;;;5016244;28;20550;-60
2021/01/19 04:43:12;;;;;;;1.90;0.60;;;3.80;99.90;;;;;;5015724;28;20186;-60
2021/01/19 04:45:39;;;;;;;1.90;0.40;;;3.70;99.90;;;;;;5016611;28;20566;-61
2021/01/19 04:48:06;;;;;;;1.70;0.20;;;3.70;99.90;;;;;;5018922;28;20217;-61
2021/01/19 04:50:34;;;;;;;2.22;1.05;;;3.70;99.90;;;;;;5015879;28;20193;-61
2021/01/19 04:53:01;;;;;;;3.10;1.40;;;3.80;99.90;;;;;;5016195;28;20193;-61
2021/01/19 04:55:27;;;;;;;1.73;0.20;;;3.80;99.90;;;;;;5016854;28;20198;-61
2021/01/19 04:58:05;;;;;;;2.85;1.40;;;3.70;99.90;;;;;;5014894;28;20195;-61
2021/01/19 05:00:32;;;;;;;2.15;0.80;;;3.70;99.90;;;;;;5015540;28;20654;-61
2021/01/19 05:03:02;;;;;;;1.98;0.60;;;3.70;99.90;;;;;;5017360;28;20191;-60
2021/01/19 05:05:37;;;;;;;2.70;0.63;;;3.70;99.90;;;;;;5016272;28;20222;-61
2021/01/19 05:08:15;;;;;;;3.08;1.55;;;3.70;99.90;;;;;;5015382;28;20210;-61
2021/01/19 05:10:47;;;;;;;1.73;0.30;;;3.70;99.90;;;;;;5015262;28;20218;-61
2021/01/19 05:13:14;;;;;;;18.25;2.50;;;3.80;99.90;;;;;;5016596;28;20182;-61
2021/01/19 05:15:45;;;;;;;3.92;1.25;;;3.80;99.90;;;;;;5015154;28;20206;-61
2021/01/19 05:18:12;;;;;;;3.90;1.67;;;3.70;99.90;;;;;;5016264;28;20234;-61
2021/01/19 05:20:45;;;;;;;3.75;1.60;;;3.70;99.90;;;;;;5015644;28;20182;-61
2021/01/19 05:23:22;;;;;;;1.73;0.20;;;3.70;99.90;;;;;;5015376;28;20187;-61
2021/01/19 05:25:58;;;;;;;1.70;0.20;;;3.70;99.90;;;;;;5017126;28;20194;-61
2021/01/19 05:28:36;;;;;;;4.20;1.15;;;3.70;99.90;;;;;;5012279;28;20712;-60
2021/01/19 05:31:05;;;;;;;1.75;0.28;;;3.70;99.90;;;;;;5013690;28;20285;-61
2021/01/19 05:33:30;;;;;;;3.63;1.40;;;3.70;99.90;;;;;;5017578;28;20201;-61
2021/01/19 05:36:06;;;;;;;1.70;0.20;;;3.70;99.90;;;;;;5016454;28;20206;-61
2021/01/19 05:38:50;;;;;;;1.90;0.60;;;3.70;99.90;;;;;;5012758;28;20213;-60
2021/01/19 05:41:27;;;;;;;1.70;0.20;;;3.80;99.90;;;;;;5014252;28;20654;-61
2021/01/19 05:43:53;;;;;;;1.70;0.20;;;3.70;99.90;;;;;;5011192;28;20197;-61
2021/01/19 05:46:28;;;;;;;1.70;0.25;;;3.70;99.90;;;;;;5018588;28;20221;-61
2021/01/19 05:49:01;;;;;;;1.73;0.20;;;3.70;99.90;;;;;;5014556;28;20621;-61
2021/01/19 05:51:31;;;;;;;3.63;0.90;;;3.70;99.90;;;;;;5012493;28;20218;-60
2021/01/19 05:53:58;;;;;;;2.97;1.00;;;3.70;99.90;;;;;;5012511;28;20214;-61
2021/01/19 05:56:26;;;;;;;1.73;0.20;;;3.70;99.90;;;;;;5013812;28;20253;-61
2021/01/19 05:58:51;;;;;;;2.58;1.15;;;3.60;99.90;;;;;;5012788;28;20336;-61
2021/01/19 06:01:30;;;;;;;4.60;1.70;;;3.60;99.90;;;;;;5012314;28;21001;-60
2021/01/19 06:03:58;;;;;;;1.70;0.20;;;3.60;99.90;;;;;;5012555;28;20183;-61
2021/01/19 06:06:25;;;;;;;1.70;0.20;;;3.60;99.90;;;;;;5012240;28;20186;-60
2021/01/19 06:09:01;;;;;;;2.47;0.50;;;3.60;99.90;;;;;;5012695;28;20693;-61
2021/01/19 06:11:27;;;;;;;1.70;0.20;;;3.60;99.90;;;;;;5012561;28;20175;-60
2021/01/19 06:13:54;;;;;;;2.20;0.60;;;3.60;99.90;;;;;;5012855;28;20683;-60
2021/01/19 06:16:24;;;;;;;1.70;0.20;;;3.60;99.90;;;;;;5013500;28;20552;-61
2021/01/19 06:18:50;;;;;;;1.70;0.30;;;3.50;99.90;;;;;;5014372;28;20258;-60
2021/01/19 06:21:35;;;;;;;1.70;0.20;;;3.60;99.90;;;;;;5012314;28;20335;-60
2021/01/19 06:24:01;;;;;;;1.70;0.20;;;3.60;99.90;;;;;;5012968;28;20433;-61
2021/01/19 06:26:26;;;;;;;1.73;0.38;;;3.60;99.90;;;;;;5013032;28;20856;-60
2021/01/19 06:28:52;;;;;;;1.70;0.20;;;3.60;99.90;;;;;;4997295;28;20222;-60
2021/01/19 06:31:22;;;;;;;4.33;1.20;;;3.60;99.90;;;;;;5024266;28;20199;-62
2021/01/19 06:33:50;;;;;;;7.05;1.05;;;3.60;99.90;;;;;;5029219;28;20190;-61
2021/01/19 06:36:17;;;;;;;1.70;0.20;;;3.60;99.90;;;;;;5024971;28;20222;-61
2021/01/19 06:38:47;;;;;;;1.70;0.20;;;3.60;99.90;;;;;;5029789;28;20232;-61
2021/01/19 06:41:17;;;;;;;1.70;0.20;;;3.70;99.90;;;;;;5020394;28;20197;-60
2021/01/19 06:43:50;;;;;;;1.70;0.20;;;3.70;99.90;;;;;;5018067;28;20208;-61
2021/01/19 06:46:19;;;;;;;2.28;0.57;;;3.70;99.90;;;;;;5014521;28;20539;-61
2021/01/19 06:48:45;;;;;;;2.10;0.80;;;3.70;99.90;;;;;;5013740;28;20308;-60
2021/01/19 06:51:11;;;;;;;1.70;0.30;;;3.70;99.90;;;;;;5013244;28;20229;-60
2021/01/19 06:53:45;;;;;;;2.97;1.20;;;3.70;99.90;;;;;;5013853;28;20646;-60
2021/01/19 06:56:15;;;;;;;1.70;0.20;;;3.70;99.90;;;;;;5013067;28;20458;-60
2021/01/19 06:58:54;;;;;;;5.80;0.80;;;3.70;99.90;;;;;;5009063;28;20705;-60
2021/01/19 07:01:22;;;;;;;4.78;2.00;;;3.70;99.90;;;;;;5011442;28;20265;-60
2021/01/19 07:03:55;;;;;;;1.73;0.20;;;3.70;99.90;;;;;;5012136;28;20183;-61
2021/01/19 07:06:46;;;;;;;3.80;0.85;;;3.70;99.90;;;;;;5012158;28;20535;-60
2021/01/19 07:09:46;;;;;;;2.58;0.60;;;3.70;99.90;;;;;;5010751;28;20318;-60
2021/01/19 07:12:17;;;;;;;4.40;1.02;;;3.60;99.90;;;;;;5008248;28;20466;-59
2021/01/19 07:14:50;;;;;;;3.08;1.15;;;3.60;99.90;;;;;;5013985;28;20195;-61
2021/01/19 07:17:17;;;;;;;2.20;0.60;;;3.60;99.90;;;;;;5018286;28;20278;-60
2021/01/19 07:19:49;;;;;;;6.22;2.35;;;3.60;99.90;;;;;;5016348;28;20200;-60
2021/01/19 07:22:38;;;;;;;1.70;0.20;;;3.60;99.90;;;;;;5013901;28;20193;-60
2021/01/19 07:25:04;;;;;;;1.70;0.20;;;3.60;99.90;;;;;;5016761;28;20221;-59
2021/01/19 07:27:31;;;;;;;2.70;1.10;;;3.60;99.90;;;;;;5017837;28;20202;-59
2021/01/19 07:29:57;;;;;;;8.63;2.13;;;3.60;99.90;;;;;;5018681;28;20468;-59
2021/01/19 07:32:29;;;;;;;1.70;0.20;;;3.60;99.90;;;;;;5016960;28;20569;-59
2021/01/19 07:34:57;;;;;;;4.38;1.95;;;3.60;99.90;;;;;;5020584;28;20265;-60
2021/01/19 07:37:30;;;;;;;7.93;2.60;;;3.50;99.90;;;;;;5018045;28;20233;-60
2021/01/19 07:39:56;;;;;;;1.73;0.20;;;3.50;99.90;;;;;;5014007;28;20179;-60
2021/01/19 07:42:22;;;;;;;1.70;0.20;;;3.50;99.90;;;;;;5019181;28;20244;-62
2021/01/19 07:45:05;;;;;;;2.35;1.05;;;3.60;99.90;;;;;;5016967;28;20210;-62
2021/01/19 07:47:36;;;;;;;3.00;1.05;;;3.50;99.90;;;;;;5015949;28;20262;-59
2021/01/19 07:50:04;;;;;;;2.28;0.95;;;3.50;99.90;;;;;;5018856;28;20194;-61
2021/01/19 07:52:36;;;;;;;2.05;0.90;;;3.60;99.90;;;;;;5016903;28;20202;-59
2021/01/19 07:55:19;;;;;;;1.70;0.20;;;3.50;99.90;;;;;;5014600;28;20642;-59
2021/01/19 07:57:45;;;;;;;3.45;1.17;;;3.60;99.90;;;;;;5018990;28;20296;-61
2021/01/19 08:00:12;;;;;;;2.05;0.70;;;3.60;99.90;;;;;;5016300;28;20183;-60
2021/01/19 08:02:38;;;;;;;1.83;0.40;;;3.50;99.90;;;;;;5016662;28;20239;-59
2021/01/19 08:05:08;;;;;;;2.20;0.30;;;3.50;99.90;;;;;;5015369;28;20187;-60
2021/01/19 08:07:44;;;;;;;2.20;0.55;;;3.50;99.90;;;;;;5015770;28;20209;-60
2021/01/19 08:10:31;;;;;;;1.70;0.20;;;3.50;99.90;;;;;;5015522;28;20273;-59
2021/01/19 08:12:58;;;;;;;2.95;0.40;;;3.40;99.90;;;;;;5013408;28;20183;-59
2021/01/19 08:15:34;;;;;;;6.00;1.58;;;3.40;99.90;;;;;;5014611;28;20210;-59
2021/01/19 08:18:01;;;;;;;5.25;1.83;;;3.40;99.90;;;;;;5014183;28;20217;-59
2021/01/19 08:20:35;;;;;;;1.70;0.20;;;3.40;99.90;;;;;;5014189;28;20228;-59
2021/01/19 08:23:14;;;;;;;3.10;1.17;;;3.40;99.90;;;;;;5014619;28;20182;-59
2021/01/19 08:25:41;;;;;;;1.90;0.40;;;3.30;99.90;;;;;;5014576;28;20186;-59
2021/01/19 08:28:08;;;;;;;3.97;1.40;;;3.30;99.90;;;;;;5054086;22;20363;-62
2021/01/19 08:30:34;;;;;;;1.70;0.20;;;3.40;99.90;;;;;;5025634;28;20243;-62
2021/01/19 08:33:00;;;;;;;2.30;0.40;;;3.40;99.90;;;;;;5033513;28;20182;-61
2021/01/19 08:35:30;;;;;;;2.40;0.60;;;3.40;99.90;;;;;;5018915;28;20217;-62
2021/01/19 08:37:58;;;;;;;1.70;0.20;;;3.40;99.90;;;;;;5030492;28;20453;-61
2021/01/19 08:40:29;;;;;;;1.80;0.30;;;3.40;99.90;;;;;;5032629;28;20698;-61
2021/01/19 08:42:56;;;;;;;1.70;0.20;;;3.40;99.90;;;;;;5039009;28;20178;-61
2021/01/19 08:45:26;;;;;;;1.70;0.20;;;3.40;99.90;;;;;;5030009;28;20185;-60
2021/01/19 08:47:58;;;;;;;1.70;0.20;;;3.40;99.90;;;;;;5031570;28;20205;-62
2021/01/19 08:50:25;;;;;;;1.73;0.20;;;3.40;99.90;;;;;;5029254;28;20179;-62
2021/01/19 08:52:51;;;;;;;2.60;0.80;;;3.40;99.90;;;;;;5031147;28;20699;-61
2021/01/19 08:55:19;;;;;;;1.70;0.20;;;3.40;99.90;;;;;;5029731;28;20241;-61
2021/01/19 08:57:53;;;;;;;1.80;0.30;;;3.40;99.90;;;;;;5035009;28;20467;-61
2021/01/19 09:00:37;;;;;;;1.70;0.20;;;3.40;99.90;;;;;;5031123;28;20277;-61
2021/01/19 09:03:14;;;;;;;1.90;0.50;;;3.40;99.90;;;;;;5030487;28;20560;-62
2021/01/19 09:05:40;;;;;;;3.58;1.40;;;3.40;99.90;;;;;;5048625;28;20182;-62
2021/01/19 09:08:14;;;;;;;3.10;1.30;;;3.30;99.90;;;;;;5041472;28;20733;-62
2021/01/19 09:10:40;;;;;;;1.70;0.20;;;3.20;99.90;;;;;;5031207;28;20186;-61
2021/01/19 09:13:05;;;;;;;1.70;0.20;;;3.10;99.90;;;;;;5031004;28;20532;-61
2021/01/19 09:15:43;;;;;;;2.43;1.13;;;3.00;99.90;;;;;;5030068;28;20251;-62
2021/01/19 09:18:13;;;;;;;1.70;0.20;;;3.00;99.90;;;;;;5027931;28;20534;-63
2021/01/19 09:20:43;;;;;;;4.70;2.13;;;3.00;99.90;;;;;;5012139;28;20199;-66
2021/01/19 09:23:16;;;;;;;3.38;1.20;;;3.00;99.90;;;;;;5032053;28;20193;-62
2021/01/19 09:25:46;;;;;;;3.90;1.67;;;2.90;99.90;;;;;;5029517;28;20198;-62
2021/01/19 09:28:13;;;;;;;2.55;1.27;;;2.80;99.90;;;;;;5027772;28;20224;-63
2021/01/19 09:30:39;;;;;;;4.97;1.50;;;2.80;99.90;;;;;;5029931;28;20244;-63
2021/01/19 09:33:10;;;;;;;3.78;1.63;;;2.70;99.90;;;;;;5028091;28;20190;-62
2021/01/19 09:35:40;;;;;;;2.55;2.00;;;2.70;99.90;;;;;;5028691;28;20260;-63
2021/01/19 09:38:17;;;;;;;1.73;0.20;;;2.80;99.90;;;;;;5035638;28;20201;-63
2021/01/19 09:40:45;;;;;;;1.80;0.30;;;2.90;99.90;;;;;;5019337;28;20380;-63
2021/01/19 09:43:16;;;;;;;4.65;1.50;;;2.90;99.90;;;;;;5039005;28;20178;-63
2021/01/19 09:45:42;;;;;;;1.70;0.20;;;2.90;99.90;;;;;;5047123;28;20182;-64
2021/01/19 09:48:08;;;;;;;2.00;0.50;;;3.00;99.90;;;;;;5047180;28;20224;-64
2021/01/19 09:50:34;;;;;;;2.20;0.65;;;3.10;99.90;;;;;;5023820;28;20282;-64
2021/01/19 09:52:59;;;;;;;1.70;0.20;;;3.10;99.90;;;;;;5032519;28;20205;-64
2021/01/19 09:55:30;;;;;;;1.70;0.20;;;3.20;99.90;;;;;;5030256;28;20618;-64
2021/01/19 09:58:01;;;;;;;2.00;0.60;;;3.20;99.90;;;;;;5031417;28;20286;-63
2021/01/19 10:00:30;;;;;;;1.70;0.20;;;3.30;99.90;;;;;;5028862;28;20190;-63
2021/01/19 10:02:56;;;;;;;2.40;0.82;;;3.30;99.90;;;;;;5030704;28;20182;-63
2021/01/19 10:05:22;;;;;;;3.40;1.80;;;3.30;99.90;;;;;;5032471;28;20197;-63
2021/01/19 10:07:49;;;;;;;2.60;1.20;;;3.40;99.90;;;;;;5029925;28;20233;-63
2021/01/19 10:10:15;;;;;;;2.58;1.05;;;3.40;99.90;;;;;;5027943;28;20208;-63
2021/01/19 10:12:42;;;;;;;2.42;0.55;;;3.40;99.90;;;;;;5035545;28;20363;-63
2021/01/19 10:15:09;;;;;;;1.70;0.20;;;3.40;99.90;;;;;;5032356;28;20174;-63
2021/01/19 10:17:36;;;;;;;2.95;1.20;;;3.50;99.90;;;;;;5029603;28;20213;-62
2021/01/19 10:20:10;;;;;;;3.50;1.38;;;3.50;99.90;;;;;;5034920;28;20556;-63
2021/01/19 10:22:37;;;;;;;2.55;1.00;;;3.50;99.90;;;;;;5027625;28;20189;-63
2021/01/19 10:25:06;;;;;;;3.70;1.60;;;3.50;99.90;;;;;;5013359;28;20213;-63
2021/01/19 10:27:37;;;;;;;2.10;0.35;;;3.50;99.90;;;;;;5030607;28;20228;-64
2021/01/19 10:30:03;;;;;;;3.20;2.75;;;3.50;99.90;;;;;;5029450;28;20655;-63
2021/01/19 10:32:48;;;;;;;1.92;0.45;;;3.50;99.90;;;;;;5030520;28;20182;-63
2021/01/19 10:35:33;;;;;;;2.35;0.65;;;3.50;99.90;;;;;;5034237;28;20255;-63
2021/01/19 10:38:04;;;;;;;4.05;1.45;;;3.40;99.90;;;;;;5027666;28;20324;-63
2021/01/19 10:40:30;;;;;;;4.25;1.45;;;3.40;99.90;;;;;;5027396;28;20182;-64
2021/01/19 10:42:56;;;;;;;1.80;0.38;;;3.40;99.90;;;;;;5030892;28;20193;-63
2021/01/19 10:45:30;;;;;;;3.33;1.35;;;3.40;99.90;;;;;;5030052;28;20217;-63
2021/01/19 10:47:58;;;;;;;4.07;2.42;;;3.30;99.90;;;;;;5031257;28;20680;-63
2021/01/19 10:50:29;;;;;;;2.80;0.98;;;3.30;99.90;;;;;;5033036;28;20249;-63
2021/01/19 10:53:00;;;;;;;2.20;1.25;;;3.30;99.90;;;;;;5027303;28;20751;-63
2021/01/19 10:55:26;;;;;;;3.38;0.60;;;3.20;99.90;;;;;;5028073;28;20404;-64
2021/01/19 10:57:54;;;;;;;6.30;2.13;;;3.20;99.90;;;;;;5034756;28;20220;-63
2021/01/19 11:00:20;;;;;;;1.70;0.20;;;3.10;99.90;;;;;;5032150;28;20185;-62
2021/01/19 11:02:45;;;;;;;1.70;0.20;;;3.10;99.90;;;;;;5034437;28;20186;-62
2021/01/19 11:05:11;;;;;;;2.73;0.87;;;3.00;99.90;;;;;;5035426;28;20396;-62
2021/01/19 11:07:36;;;;;;;2.80;1.30;;;2.90;99.90;;;;;;5030795;28;20206;-62
2021/01/19 11:10:02;;;;;;;2.00;0.60;;;2.80;99.90;;;;;;5032974;28;20186;-62
2021/01/19 11:12:28;;;;;;;1.90;0.55;;;2.70;99.90;;;;;;5029710;28;20429;-64
2021/01/19 11:14:53;;;;;;;1.70;0.20;;;2.70;99.90;;;;;;5034802;28;20190;-63
2021/01/19 11:17:19;;;;;;;1.70;0.20;;;2.70;99.90;;;;;;5039528;28;20228;-62
2021/01/19 11:19:44;;;;;;;6.93;2.50;;;2.70;99.90;;;;;;5036133;28;20197;-62
2021/01/19 11:22:10;;;;;;;3.10;1.00;;;2.60;99.90;;;;;;5033608;28;20596;-63
2021/01/19 11:24:36;;;;;;;5.33;2.00;;;2.50;99.90;;;;;;5035447;28;20620;-63
2021/01/19 11:27:01;;;;;;;3.70;1.43;;;2.40;99.90;;;;;;5031532;28;20712;-62
2021/01/19 11:29:27;;;;;;;2.53;0.40;;;2.50;99.90;;;;;;5047920;28;20216;-63
2021/01/19 11:31:52;;;;;;;3.50;1.37;;;2.40;99.90;;;;;;5042159;28;20174;-62
2021/01/19 11:34:18;;;;;;;4.30;1.50;;;2.40;99.90;;;;;;5030887;28;20192;-63
2021/01/19 11:36:44;;;;;;;3.40;1.70;;;2.40;99.90;;;;;;5037112;28;20994;-63
2021/01/19 11:39:11;;;;;;;4.50;1.70;;;2.40;99.90;;;;;;5034006;28;20182;-62
2021/01/19 11:41:38;;;;;;;2.17;1.00;;;2.40;99.90;;;;;;5027229;28;20332;-62
2021/01/19 11:44:05;;;;;;;12.68;4.45;;;2.50;99.90;;;;;;5032211;28;20186;-63
2021/01/19 11:46:32;;;;;;;2.08;0.38;;;2.50;99.90;;;;;;5031810;28;20197;-62
2021/01/19 11:49:00;;;;;;;6.03;1.58;;;2.50;99.90;;;;;;5030389;28;20193;-62
2021/01/19 11:51:32;;;;;;;1.73;0.20;;;2.60;99.90;;;;;;5034358;28;20185;-62
2021/01/19 11:54:00;;;;;;;3.42;1.90;;;2.60;99.90;;;;;;5031192;28;20331;-62
2021/01/19 11:56:39;;;;;;;3.33;1.45;;;2.50;99.90;;;;;;5031447;28;20210;-62
2021/01/19 11:59:06;;;;;;;10.85;1.88;;;2.60;99.90;;;;;;5034394;28;20267;-63
2021/01/19 12:01:32;;;;;;;2.80;0.77;;;2.50;99.90;;;;;;5015319;28;20182;-63
2021/01/19 12:03:58;;;;;;;13.63;3.57;;;2.50;99.90;;;;;;5032796;28;20245;-62
2021/01/19 12:06:24;;;;;;;1.70;0.20;;;2.40;99.90;;;;;;5037802;28;20457;-62
2021/01/19 12:08:50;;;;;;;1.80;0.20;;;2.40;99.90;;;;;;5034475;28;20188;-63
2021/01/19 12:11:17;;;;;;;2.08;0.45;;;2.40;99.90;;;;;;5032116;28;20213;-63
2021/01/19 12:13:43;;;;;;;1.73;0.20;;;2.40;99.90;;;;;;5035110;28;20265;-63
2021/01/19 12:16:10;;;;;;;2.28;0.65;;;2.40;99.90;;;;;;5032791;28;20205;-63
2021/01/19 12:18:37;;;;;;;3.88;1.60;;;2.50;99.90;;;;;;5034087;28;20200;-63
2021/01/19 12:21:05;;;;;;;6.13;2.50;;;2.50;99.90;;;;;;5031956;28;20220;-63
2021/01/19 12:23:30;;;;;;;3.50;1.45;;;2.50;99.90;;;;;;5030260;28;20190;-63
2021/01/19 12:25:58;;;;;;;4.20;1.43;;;2.50;99.90;;;;;;5032762;28;20269;-63
2021/01/19 12:28:24;;;;;;;4.00;2.03;;;2.50;99.90;;;;;;5035135;28;20439;-63
2021/01/19 12:30:50;;;;;;;3.15;2.20;;;2.50;99.90;;;;;;5031372;28;20190;-63
2021/01/19 12:33:16;;;;;;;5.13;2.00;;;2.50;99.90;;;;;;5032723;28;20181;-63
2021/01/19 12:35:42;;;;;;;1.70;0.20;;;2.50;99.90;;;;;;5037135;28;20859;-63
2021/01/19 12:38:07;;;;;;;1.70;0.20;;;2.50;99.90;;;;;;5019628;28;20506;-63
2021/01/19 12:40:33;;;;;;;3.90;1.80;;;2.60;99.90;;;;;;5033537;28;20216;-63
2021/01/19 12:42:58;;;;;;;1.70;0.20;;;2.60;99.90;;;;;;5034273;28;20603;-63
2021/01/19 12:45:24;;;;;;;1.90;0.30;;;2.50;99.90;;;;;;5031010;28;20194;-63
2021/01/19 12:47:51;;;;;;;3.60;2.10;;;2.60;99.90;;;;;;5030810;28;20207;-63
2021/01/19 12:50:18;;;;;;;4.13;1.63;;;2.60;99.90;;;;;;5034025;28;20276;-63
2021/01/19 12:52:43;;;;;;;2.10;0.75;;;2.60;99.90;;;;;;5028909;28;20190;-63
2021/01/19 12:55:10;;;;;;;3.90;2.10;;;2.60;99.90;;;;;;5032660;28;20189;-63
2021/01/19 12:57:36;;;;;;;2.50;0.37;;;2.60;99.90;;;;;;5035438;28;20459;-64
2021/01/19 13:00:04;;;;;;;2.10;0.73;;;2.60;99.90;;;;;;5031514;28;20603;-64
2021/01/19 13:02:30;;;;;;;3.40;2.03;;;2.60;99.90;;;;;;5037917;28;20267;-64
2021/01/19 13:04:57;;;;;;;2.30;0.80;;;2.60;99.90;;;;;;5037678;28;20242;-63
2021/01/19 13:07:23;;;;;;;2.00;0.50;;;2.70;99.90;;;;;;5041372;28;20301;-63
2021/01/19 13:09:50;;;;;;;1.70;0.20;;;2.70;99.90;;;;;;5037756;28;20209;-64